createdAt,value
2022-12-01T00:01:42.986Z,72.00
2022-12-01T00:04:46.009Z,71.90
2022-12-01T00:07:57.491Z,72.00
2022-12-01T00:11:06.923Z,72.00
2022-12-01T00:14:09.876Z,72.10
2022-12-01T00:17:12.936Z,72.00
2022-12-01T00:20:16.984Z,72.10
2022-12-01T00:23:20.007Z,72.10
2022-12-01T00:26:26.449Z,72.10
2022-12-01T00:29:29.864Z,72.10
2022-12-01T00:32:33.106Z,72.00
2022-12-01T00:35:36.104Z,72.20
2022-12-01T00:38:39.783Z,72.10
2022-12-01T00:41:44.033Z,72.10
2022-12-01T00:44:46.996Z,72.10
2022-12-01T00:47:50.095Z,72.10
2022-12-01T00:50:55.272Z,72.30
2022-12-01T00:53:58.550Z,72.10
2022-12-01T00:57:03.066Z,72.00
2022-12-01T01:00:07.830Z,72.10
2022-12-01T01:03:12.100Z,72.70
2022-12-01T01:06:15.410Z,72.00
2022-12-01T01:09:18.600Z,72.10
2022-12-01T01:12:22.948Z,72.10
2022-12-01T01:15:26.082Z,72.10
2022-12-01T01:18:29.992Z,72.00
2022-12-01T01:21:33.051Z,72.00
2022-12-01T01:24:36.463Z,72.10
2022-12-01T01:27:40.815Z,72.60
2022-12-01T01:30:43.926Z,72.10
2022-12-01T01:33:47.650Z,72.10
2022-12-01T01:36:50.977Z,72.00
2022-12-01T01:39:54.189Z,72.50
2022-12-01T01:42:58.617Z,72.10
2022-12-01T01:46:01.706Z,72.80
2022-12-01T01:49:09.256Z,72.10
2022-12-01T01:52:12.542Z,72.10
2022-12-01T01:55:16.830Z,72.00
2022-12-01T01:58:21.902Z,72.20
2022-12-01T02:01:25.035Z,72.10
2022-12-01T02:04:29.614Z,72.10
2022-12-01T02:07:32.839Z,72.10
2022-12-01T02:10:55.365Z,72.10
2022-12-01T02:14:14.603Z,72.20
2022-12-01T02:17:36.320Z,72.00
2022-12-01T02:21:40.102Z,72.20
2022-12-01T02:25:04.618Z,72.50
2022-12-01T02:28:57.001Z,72.10
2022-12-01T02:32:16.101Z,72.40
2022-12-01T02:35:33.941Z,72.40
2022-12-01T02:38:44.535Z,72.40
2022-12-01T02:41:53.573Z,72.40
2022-12-01T02:44:59.178Z,72.50
2022-12-01T02:48:08.690Z,72.40
2022-12-01T02:51:16.878Z,72.40
2022-12-01T02:54:21.977Z,72.20
2022-12-01T02:57:25.314Z,72.10
2022-12-01T03:00:30.294Z,71.90
2022-12-01T03:04:01.734Z,71.80
2022-12-01T03:07:20.112Z,72.00
2022-12-01T03:10:32.516Z,71.90
2022-12-01T03:13:46.231Z,72.00
2022-12-01T03:16:53.160Z,72.00
2022-12-01T03:20:08.637Z,71.90
2022-12-01T03:23:17.370Z,72.10
2022-12-01T03:26:25.230Z,72.00
2022-12-01T03:29:33.874Z,72.00
2022-12-01T03:32:47.324Z,72.00
2022-12-01T03:35:59.365Z,72.10
2022-12-01T03:39:14.848Z,72.20
2022-12-01T03:42:26.814Z,72.00
2022-12-01T03:45:37.404Z,72.30
2022-12-01T03:48:42.761Z,72.20
2022-12-01T03:52:05.935Z,72.30
2022-12-01T03:55:15.384Z,72.90
2022-12-01T03:58:23.951Z,72.40
2022-12-01T04:01:32.635Z,72.40
2022-12-01T04:04:35.853Z,72.40
2022-12-01T04:07:41.309Z,72.30
2022-12-01T04:10:44.745Z,72.50
2022-12-01T04:13:46.726Z,72.60
2022-12-01T04:16:49.795Z,72.60
2022-12-01T04:19:53.196Z,72.70
2022-12-01T04:22:57.594Z,72.70
2022-12-01T04:26:01.352Z,72.80
2022-12-01T04:29:07.107Z,72.90
2022-12-01T04:32:10.351Z,73.00
2022-12-01T04:35:13.975Z,73.00
2022-12-01T04:38:18.430Z,73.20
2022-12-01T04:41:21.544Z,73.30
2022-12-01T04:44:27.767Z,73.40
2022-12-01T04:47:33.149Z,73.60
2022-12-01T04:50:36.446Z,73.80
2022-12-01T04:53:40.863Z,73.70
2022-12-01T04:56:44.188Z,73.80
2022-12-01T04:59:47.330Z,73.80
2022-12-01T05:02:50.534Z,73.90
2022-12-01T05:06:03.340Z,73.80
2022-12-01T05:09:12.152Z,74.20
2022-12-01T05:12:17.707Z,73.90
2022-12-01T05:15:20.714Z,73.80
2022-12-01T05:18:23.792Z,73.70
2022-12-01T05:21:25.889Z,73.60
2022-12-01T05:24:30.406Z,73.50
2022-12-01T05:27:33.309Z,73.50
2022-12-01T05:30:36.213Z,73.30
2022-12-01T05:33:39.198Z,73.00
2022-12-01T05:36:42.248Z,73.20
2022-12-01T05:39:47.007Z,73.20
2022-12-01T05:42:50.172Z,73.20
2022-12-01T05:45:53.270Z,73.40
2022-12-01T05:48:56.339Z,73.10
2022-12-01T05:51:59.314Z,73.20
2022-12-01T05:55:04.592Z,73.10
2022-12-01T05:58:08.313Z,73.30
2022-12-01T06:01:12.426Z,73.00
2022-12-01T06:04:15.964Z,73.50
2022-12-01T06:07:18.994Z,73.30
2022-12-01T06:10:24.404Z,73.30
2022-12-01T06:13:27.510Z,73.80
2022-12-01T06:16:30.804Z,73.10
2022-12-01T06:19:33.936Z,73.20
2022-12-01T06:22:36.933Z,73.30
2022-12-01T06:25:41.226Z,73.30
2022-12-01T06:28:44.290Z,73.40
2022-12-01T06:31:47.489Z,73.20
2022-12-01T06:34:50.636Z,73.20
2022-12-01T06:37:54.738Z,73.20
2022-12-01T06:40:59.227Z,73.20
2022-12-01T06:44:02.745Z,73.20
2022-12-01T06:47:07.634Z,73.10
2022-12-01T06:50:12.263Z,73.10
2022-12-01T06:53:15.321Z,73.30
2022-12-01T06:56:19.694Z,73.30
2022-12-01T06:59:23.603Z,73.10
2022-12-01T07:02:27.167Z,73.10
2022-12-01T07:05:30.255Z,73.20
2022-12-01T07:08:33.909Z,73.10
2022-12-01T07:11:38.575Z,73.00
2022-12-01T07:14:42.439Z,73.60
2022-12-01T07:17:45.356Z,73.10
2022-12-01T07:20:48.525Z,72.90
2022-12-01T07:23:51.509Z,73.10
2022-12-01T07:26:55.841Z,73.00
2022-12-01T07:29:59.078Z,73.10
2022-12-01T07:33:02.085Z,73.10
2022-12-01T07:36:06.406Z,73.10
2022-12-01T07:39:10.206Z,73.20
2022-12-01T07:42:14.536Z,73.10
2022-12-01T07:45:17.689Z,73.20
2022-12-01T07:48:20.697Z,73.10
2022-12-01T07:51:26.209Z,73.20
2022-12-01T07:54:29.167Z,73.20
2022-12-01T07:57:33.546Z,73.30
2022-12-01T08:00:36.582Z,73.20
2022-12-01T08:03:40.255Z,72.90
2022-12-01T08:06:43.225Z,73.00
2022-12-01T08:09:46.399Z,72.90
2022-12-01T08:12:50.871Z,73.00
2022-12-01T08:15:53.956Z,72.90
2022-12-01T08:18:57.082Z,72.80
2022-12-01T08:22:00.110Z,72.80
2022-12-01T08:25:03.151Z,72.90
2022-12-01T08:28:07.598Z,72.70
2022-12-01T08:31:13.480Z,72.70
2022-12-01T08:34:16.844Z,73.10
2022-12-01T08:37:19.944Z,72.70
2022-12-01T08:40:23.272Z,72.80
2022-12-01T08:43:55.943Z,72.40
2022-12-01T08:46:50.868Z,72.10
2022-12-01T08:49:53.890Z,72.40
2022-12-01T08:52:57.244Z,72.30
2022-12-01T08:56:02.759Z,72.40
2022-12-01T08:59:07.409Z,72.40
2022-12-01T09:02:16.018Z,72.50
2022-12-01T09:05:18.998Z,72.60
2022-12-01T09:08:35.087Z,72.70
2022-12-01T09:11:38.631Z,72.70
2022-12-01T09:14:48.008Z,72.70
2022-12-01T09:17:50.991Z,72.70
2022-12-01T09:20:54.847Z,72.80
2022-12-01T09:23:58.828Z,72.80
2022-12-01T09:27:03.420Z,72.90
2022-12-01T09:30:09.654Z,72.90
2022-12-01T09:33:13.350Z,73.20
2022-12-01T09:36:16.338Z,73.50
2022-12-01T09:39:21.645Z,73.00
2022-12-01T09:42:32.233Z,73.00
2022-12-01T09:45:45.942Z,73.30
2022-12-01T09:48:53.488Z,72.80
2022-12-01T09:51:56.666Z,72.90
2022-12-01T09:55:01.904Z,72.80
2022-12-01T09:58:14.380Z,73.20
2022-12-01T10:01:27.148Z,72.60
2022-12-01T10:04:40.870Z,72.70
2022-12-01T10:07:52.452Z,72.70
2022-12-01T10:11:06.143Z,72.50
2022-12-01T10:14:20.128Z,72.50
2022-12-01T10:17:38.040Z,72.50
2022-12-01T10:20:49.462Z,72.50
2022-12-01T10:24:14.557Z,72.50
2022-12-01T10:27:34.635Z,72.60
2022-12-01T10:30:49.647Z,72.40
2022-12-01T10:34:02.264Z,72.20
2022-12-01T10:37:06.600Z,72.10
2022-12-01T10:40:15.683Z,72.10
2022-12-01T10:43:18.670Z,71.90
2022-12-01T10:46:29.340Z,71.90
2022-12-01T10:49:40.140Z,71.80
2022-12-01T10:52:49.623Z,71.90
2022-12-01T10:56:05.137Z,71.90
2022-12-01T10:59:28.718Z,71.70
2022-12-01T11:02:33.740Z,71.20
2022-12-01T11:05:43.153Z,71.80
2022-12-01T11:08:53.458Z,71.70
2022-12-01T11:11:59.388Z,71.80
2022-12-01T11:15:03.479Z,71.70
2022-12-01T11:18:19.649Z,71.60
2022-12-01T11:21:29.405Z,71.40
2022-12-01T11:24:44.991Z,71.20
2022-12-01T11:27:52.674Z,71.20
2022-12-01T11:30:59.844Z,71.20
2022-12-01T11:34:03.054Z,71.20
2022-12-01T11:37:17.077Z,71.20
2022-12-01T11:40:26.561Z,71.10
2022-12-01T11:43:32.920Z,71.20
2022-12-01T11:46:46.473Z,71.10
2022-12-01T11:49:57.466Z,71.10
2022-12-01T11:53:02.431Z,71.10
2022-12-01T11:56:18.964Z,71.50
2022-12-01T11:59:26.788Z,70.70
2022-12-01T12:02:45.450Z,70.80
2022-12-01T12:06:39.027Z,70.40
2022-12-01T12:10:03.977Z,70.00
2022-12-01T12:13:37.892Z,69.10
2022-12-01T12:17:14.224Z,69.60
2022-12-01T12:20:38.688Z,69.10
2022-12-01T12:24:04.363Z,69.30
2022-12-01T12:27:21.089Z,70.00
2022-12-01T12:30:30.119Z,69.90
2022-12-01T12:33:55.583Z,69.90
2022-12-01T12:37:16.081Z,69.60
2022-12-01T12:40:42.276Z,69.60
2022-12-01T12:44:07.589Z,69.00
2022-12-01T12:47:28.127Z,69.20
2022-12-01T12:50:44.748Z,69.10
2022-12-01T12:53:55.282Z,69.10
2022-12-01T12:57:07.924Z,69.10
2022-12-01T13:00:19.008Z,69.00
2022-12-01T13:03:42.642Z,69.00
2022-12-01T13:06:53.452Z,68.90
2022-12-01T13:10:03.107Z,68.50
2022-12-01T13:13:24.531Z,68.60
2022-12-01T13:16:36.466Z,68.70
2022-12-01T13:19:42.525Z,68.50
2022-12-01T13:22:46.774Z,68.70
2022-12-01T13:25:55.241Z,68.70
2022-12-01T13:28:59.684Z,68.70
2022-12-01T13:32:05.684Z,69.20
2022-12-01T13:35:25.903Z,69.50
2022-12-01T13:38:32.379Z,69.10
2022-12-01T13:41:38.595Z,69.20
2022-12-01T13:44:45.492Z,69.40
2022-12-01T13:47:55.944Z,69.40
2022-12-01T13:51:02.642Z,69.40
2022-12-01T13:54:27.503Z,69.40
2022-12-01T13:57:34.870Z,69.90
2022-12-01T14:00:38.335Z,69.60
2022-12-01T14:03:52.603Z,69.70
2022-12-01T14:07:22.538Z,69.70
2022-12-01T14:10:32.466Z,69.50
2022-12-01T14:13:50.359Z,69.60
2022-12-01T14:16:58.413Z,69.70
2022-12-01T14:20:18.557Z,69.70
2022-12-01T14:23:29.171Z,69.70
2022-12-01T14:26:34.595Z,69.60
2022-12-01T14:29:42.987Z,70.00
2022-12-01T14:32:45.908Z,69.70
2022-12-01T14:35:49.236Z,70.20
2022-12-01T14:39:02.130Z,69.60
2022-12-01T14:42:45.556Z,69.60
2022-12-01T14:46:02.405Z,69.60
2022-12-01T14:49:07.367Z,69.50
2022-12-01T14:52:27.304Z,69.50
2022-12-01T14:55:36.847Z,69.70
2022-12-01T14:58:39.900Z,69.80
2022-12-01T15:01:44.430Z,69.80
2022-12-01T15:05:08.347Z,69.90
2022-12-01T15:11:55.801Z,70.10
2022-12-01T15:14:58.810Z,70.10
2022-12-01T15:18:03.566Z,70.00
2022-12-01T15:21:11.864Z,70.10
2022-12-01T15:24:24.642Z,70.20
2022-12-01T15:27:30.400Z,70.30
2022-12-01T15:30:34.197Z,70.30
2022-12-01T15:33:46.713Z,70.30
2022-12-01T15:36:51.126Z,70.50
2022-12-01T15:40:11.902Z,70.20
2022-12-01T15:43:22.850Z,70.20
2022-12-01T15:46:31.122Z,70.20
2022-12-01T15:49:40.279Z,70.20
2022-12-01T15:52:45.614Z,70.20
2022-12-01T15:55:55.583Z,70.40
2022-12-01T15:59:09.842Z,70.40
2022-12-01T16:02:27.774Z,70.30
2022-12-01T16:05:36.285Z,70.30
2022-12-01T16:08:39.575Z,70.30
2022-12-01T16:12:25.716Z,70.20
2022-12-01T16:15:29.087Z,70.30
2022-12-01T16:18:34.831Z,70.30
2022-12-01T16:21:47.420Z,70.40
2022-12-01T16:24:54.177Z,70.50
2022-12-01T16:27:59.550Z,70.50
2022-12-01T16:31:05.305Z,70.40
2022-12-01T16:34:44.081Z,70.40
2022-12-01T16:37:39.524Z,70.50
2022-12-01T16:40:43.098Z,70.80
2022-12-01T16:44:12.587Z,70.40
2022-12-01T16:47:16.413Z,70.50
2022-12-01T16:50:23.436Z,70.60
2022-12-01T16:53:26.433Z,70.60
2022-12-01T16:56:29.454Z,70.70
2022-12-01T16:59:34.120Z,70.30
2022-12-01T17:02:37.211Z,70.50
2022-12-01T17:05:40.472Z,70.50
2022-12-01T17:08:43.713Z,70.80
2022-12-01T17:11:48.505Z,70.60
2022-12-01T17:14:52.917Z,70.60
2022-12-01T17:17:55.876Z,70.70
2022-12-01T17:21:00.959Z,70.70
2022-12-01T17:24:04.353Z,70.30
2022-12-01T17:27:07.463Z,70.80
2022-12-01T17:30:13.887Z,70.80
2022-12-01T17:33:17.134Z,70.90
2022-12-01T17:36:20.636Z,70.80
2022-12-01T17:39:23.805Z,70.80
2022-12-01T17:42:26.695Z,70.80
2022-12-01T17:45:31.039Z,70.90
2022-12-01T17:48:37.675Z,70.90
2022-12-01T17:51:40.962Z,70.90
2022-12-01T17:54:44.007Z,70.90
2022-12-01T17:57:47.068Z,71.00
2022-12-01T18:00:52.702Z,71.10
2022-12-01T18:03:55.750Z,71.20
2022-12-01T18:07:00.619Z,71.20
2022-12-01T18:10:04.567Z,71.10
2022-12-01T18:13:07.595Z,71.10
2022-12-01T18:16:15.882Z,71.10
2022-12-01T18:19:20.270Z,71.30
2022-12-01T18:22:23.463Z,71.30
2022-12-01T18:25:26.521Z,71.40
2022-12-01T18:28:29.559Z,71.40
2022-12-01T18:31:34.320Z,71.60
2022-12-01T18:34:37.550Z,72.10
2022-12-01T18:37:40.638Z,71.70
2022-12-01T18:40:43.690Z,71.90
2022-12-01T18:43:47.466Z,71.90
2022-12-01T18:46:51.952Z,72.00
2022-12-01T18:49:55.046Z,72.10
2022-12-01T18:52:58.053Z,72.70
2022-12-01T18:56:04.128Z,72.10
2022-12-01T18:59:10.831Z,72.20
2022-12-01T19:02:15.359Z,72.60
2022-12-01T19:05:18.747Z,72.30
2022-12-01T19:08:23.365Z,72.20
2022-12-01T19:11:26.446Z,72.20
2022-12-01T19:14:30.151Z,72.20
2022-12-01T19:17:34.981Z,72.10
2022-12-01T19:20:38.967Z,72.80
2022-12-01T19:23:42.612Z,72.70
2022-12-01T19:26:46.170Z,72.20
2022-12-01T19:29:49.844Z,72.40
2022-12-01T19:32:54.763Z,72.00
2022-12-01T19:35:57.930Z,72.00
2022-12-01T19:39:04.423Z,72.00
2022-12-01T19:42:10.444Z,72.50
2022-12-01T19:45:13.549Z,72.00
2022-12-01T19:48:17.915Z,72.00
2022-12-01T19:51:24.162Z,72.10
2022-12-01T19:54:28.470Z,72.00
2022-12-01T19:57:31.550Z,72.00
2022-12-01T20:00:35.064Z,72.00
2022-12-01T20:03:40.708Z,72.00
2022-12-01T20:06:43.983Z,72.00
2022-12-01T20:09:50.088Z,72.00
2022-12-01T20:12:57.529Z,72.20
2022-12-01T20:16:04.222Z,71.90
2022-12-01T20:19:10.943Z,71.90
2022-12-01T20:22:14.223Z,72.40
2022-12-01T20:25:17.419Z,71.80
2022-12-01T20:28:20.329Z,71.80
2022-12-01T20:31:26.792Z,71.70
2022-12-01T20:34:35.164Z,71.80
2022-12-01T20:37:38.983Z,71.70
2022-12-01T20:40:41.986Z,71.70
2022-12-01T20:43:44.950Z,71.70
2022-12-01T20:46:48.374Z,71.70
2022-12-01T20:49:56.955Z,71.70
2022-12-01T20:53:01.591Z,71.70
2022-12-01T20:56:06.221Z,71.60
2022-12-01T20:59:09.277Z,71.80
2022-12-01T21:02:12.434Z,71.80
2022-12-01T21:05:16.933Z,71.40
2022-12-01T21:08:20.248Z,71.90
2022-12-01T21:11:42.024Z,72.40
2022-12-01T21:14:53.197Z,71.80
2022-12-01T21:18:01.862Z,71.80
2022-12-01T21:21:20.600Z,72.50
2022-12-01T21:24:33.539Z,72.00
2022-12-01T21:27:37.308Z,72.00
2022-12-01T21:30:41.861Z,72.20
2022-12-01T21:33:45.219Z,72.10
2022-12-01T21:36:53.214Z,72.00
2022-12-01T21:39:58.217Z,71.90
2022-12-01T21:43:17.876Z,72.00
2022-12-01T21:46:20.892Z,72.00
2022-12-01T21:49:34.358Z,72.00
2022-12-01T21:52:43.683Z,72.00
2022-12-01T21:55:49.243Z,72.00
2022-12-01T21:58:55.164Z,72.30
2022-12-01T22:01:59.130Z,71.80
2022-12-01T22:05:02.294Z,71.90
2022-12-01T22:08:21.567Z,72.30
2022-12-01T22:11:26.825Z,72.00
2022-12-01T22:14:35.215Z,72.20
2022-12-01T22:17:38.531Z,71.80
2022-12-01T22:20:41.717Z,71.80
2022-12-01T22:23:46.056Z,71.70
2022-12-01T22:26:54.492Z,71.80
2022-12-01T22:30:02.998Z,72.30
2022-12-01T22:33:17.676Z,71.90
2022-12-01T22:36:26.227Z,71.90
2022-12-01T22:39:34.337Z,71.90
2022-12-01T22:42:37.239Z,71.90
2022-12-01T22:45:40.552Z,71.90
2022-12-01T22:48:46.715Z,71.90
2022-12-01T22:51:52.182Z,71.90
2022-12-01T22:54:56.680Z,72.00
2022-12-01T22:58:00.003Z,71.90
2022-12-01T23:01:15.018Z,71.60
2022-12-01T23:04:27.152Z,71.90
2022-12-01T23:07:35.823Z,72.00
2022-12-01T23:10:42.258Z,71.90
2022-12-01T23:13:45.203Z,71.90
2022-12-01T23:16:48.299Z,71.90
2022-12-01T23:19:54.364Z,72.10
2022-12-01T23:22:59.883Z,71.90
2022-12-01T23:26:09.186Z,71.80
2022-12-01T23:29:12.132Z,71.90
2022-12-01T23:32:15.178Z,71.90
2022-12-01T23:35:19.672Z,72.00
2022-12-01T23:38:25.579Z,71.90
2022-12-01T23:41:36.992Z,71.90
2022-12-01T23:44:45.180Z,71.80
2022-12-01T23:47:48.555Z,71.90
2022-12-01T23:50:55.337Z,72.50
2022-12-01T23:54:02.200Z,71.90
2022-12-01T23:57:19.601Z,72.00
